VKG648 EDDH-EKCH
Flight info
| Callsign | VKG648 |
|---|---|
| Flight time | 0h 32m |
| Altitude | 23000 |
| Route | LUGEG3G LUGEG P605 GESKA/N0393F220 Z711 MONAK |
| Aircraft | A321/M-SDE3FGHIRWY/LB1 |
Departure
| Time | 2026-04-22 19:45 |
|---|---|
| Airport | Hamburg Helmut Schmidt Airport (EDDH) |
Arrival
| Time | 2026-04-22 20:18 |
|---|---|
| Airport | Copenhagen Kastrup Airport (EKCH) |
| Time | Latitude | Longitude | Altitude | Speed | Heading |
|---|---|---|---|---|---|
| 2026-04-22 19:03 | 53.63118 | 10.00054 | 50 ft | 0 kts | 140° |
| 2026-04-22 19:35 | 53.63138 | 10.00028 | 49 ft | 4 kts | 141° |
| 2026-04-22 19:35 | 53.63147 | 10.00014 | 51 ft | 4 kts | 147° |
| 2026-04-22 19:35 | 53.63166 | 10.00007 | 50 ft | 4 kts | 221° |
| 2026-04-22 19:35 | 53.63180 | 10.00034 | 51 ft | 1 kts | 231° |
| 2026-04-22 19:38 | 53.63174 | 10.00021 | 50 ft | 5 kts | 231° |
| 2026-04-22 19:39 | 53.63149 | 9.99968 | 49 ft | 7 kts | 231° |
| 2026-04-22 19:39 | 53.63116 | 9.99906 | 50 ft | 7 kts | 221° |
| 2026-04-22 19:39 | 53.63074 | 9.99888 | 50 ft | 6 kts | 170° |
| 2026-04-22 19:39 | 53.63042 | 9.99917 | 49 ft | 9 kts | 149° |
| 2026-04-22 19:40 | 53.62980 | 9.99977 | 47 ft | 6 kts | 152° |
| 2026-04-22 19:40 | 53.62961 | 9.99990 | 50 ft | 0 kts | 162° |
| 2026-04-22 19:41 | 53.62956 | 9.99992 | 50 ft | 3 kts | 167° |
| 2026-04-22 19:41 | 53.62936 | 9.99995 | 50 ft | 2 kts | 174° |
| 2026-04-22 19:41 | 53.62911 | 10.00015 | 49 ft | 6 kts | 149° |
| 2026-04-22 19:42 | 53.62860 | 10.00006 | 48 ft | 8 kts | 218° |
| 2026-04-22 19:42 | 53.62841 | 9.99950 | 49 ft | 0 kts | 243° |
| 2026-04-22 19:43 | 53.62830 | 9.99914 | 50 ft | 11 kts | 243° |
| 2026-04-22 19:43 | 53.62812 | 9.99789 | 47 ft | 6 kts | 320° |
| 2026-04-22 19:44 | 53.62819 | 9.99784 | 49 ft | 2 kts | 333° |
| 2026-04-22 19:44 | 53.62822 | 9.99782 | 49 ft | 0 kts | 334° |
| 2026-04-22 19:44 | 53.62823 | 9.99781 | 49 ft | 2 kts | 334° |
| 2026-04-22 19:45 | 53.62965 | 9.99659 | 49 ft | 57 kts | 332° |
| 2026-04-22 19:45 | 53.63511 | 9.99185 | 52 ft | 116 kts | 333° |
| 2026-04-22 19:45 | 53.64374 | 9.98437 | 58 ft | 159 kts | 331° |
| 2026-04-22 19:45 | 53.65349 | 9.97596 | 685 ft | 154 kts | 330° |
| 2026-04-22 19:46 | 53.66295 | 9.96777 | 1342 ft | 152 kts | 331° |
| 2026-04-22 19:46 | 53.67235 | 9.95971 | 1947 ft | 151 kts | 332° |
| 2026-04-22 19:46 | 53.68180 | 9.95179 | 2467 ft | 155 kts | 333° |
| 2026-04-22 19:46 | 53.69266 | 9.94637 | 2746 ft | 173 kts | 354° |
| 2026-04-22 19:47 | 53.70531 | 9.94690 | 3015 ft | 191 kts | 0° |
| 2026-04-22 19:47 | 53.71899 | 9.94790 | 3423 ft | 200 kts | 4° |
| 2026-04-22 19:47 | 53.73231 | 9.95562 | 3919 ft | 209 kts | 29° |
| 2026-04-22 19:47 | 53.74278 | 9.97309 | 4397 ft | 219 kts | 53° |
| 2026-04-22 19:48 | 53.75019 | 9.99701 | 4701 ft | 242 kts | 60° |
| 2026-04-22 19:48 | 53.75782 | 10.02386 | 5105 ft | 262 kts | 62° |
| 2026-04-22 19:48 | 53.76561 | 10.05198 | 5906 ft | 266 kts | 62° |
| 2026-04-22 19:48 | 53.77350 | 10.08027 | 6783 ft | 266 kts | 62° |
| 2026-04-22 19:49 | 53.78153 | 10.10857 | 7593 ft | 268 kts | 61° |
| 2026-04-22 19:49 | 53.78978 | 10.13714 | 8391 ft | 271 kts | 61° |
| 2026-04-22 19:49 | 53.79825 | 10.16598 | 9191 ft | 275 kts | 61° |
| 2026-04-22 19:49 | 53.80686 | 10.19495 | 9977 ft | 278 kts | 61° |
| 2026-04-22 19:50 | 53.81551 | 10.22463 | 10661 ft | 284 kts | 62° |
| 2026-04-22 19:50 | 53.82440 | 10.25557 | 10860 ft | 305 kts | 62° |
| 2026-04-22 19:50 | 53.83400 | 10.28914 | 11005 ft | 328 kts | 62° |
| 2026-04-22 19:50 | 53.84413 | 10.32473 | 11353 ft | 340 kts | 62° |
| 2026-04-22 19:51 | 53.85447 | 10.36112 | 11969 ft | 345 kts | 63° |
| 2026-04-22 19:51 | 53.86488 | 10.39790 | 12637 ft | 348 kts | 63° |
| 2026-04-22 19:51 | 53.87532 | 10.43503 | 13295 ft | 351 kts | 63° |
| 2026-04-22 19:51 | 53.88583 | 10.47251 | 13970 ft | 354 kts | 63° |
| 2026-04-22 19:52 | 53.89642 | 10.51036 | 14579 ft | 357 kts | 64° |
| 2026-04-22 19:52 | 53.90712 | 10.54857 | 15162 ft | 361 kts | 63° |
| 2026-04-22 19:52 | 53.91798 | 10.58716 | 15719 ft | 364 kts | 63° |
| 2026-04-22 19:52 | 53.92899 | 10.62610 | 16279 ft | 368 kts | 63° |
| 2026-04-22 19:53 | 53.94133 | 10.66427 | 16819 ft | 371 kts | 55° |
| 2026-04-22 19:53 | 53.95765 | 10.69845 | 17360 ft | 374 kts | 46° |
| 2026-04-22 19:53 | 53.97722 | 10.72749 | 17882 ft | 377 kts | 34° |
| 2026-04-22 19:53 | 53.99937 | 10.75169 | 18408 ft | 380 kts | 32° |
| 2026-04-22 19:54 | 54.02183 | 10.77586 | 18873 ft | 384 kts | 33° |
| 2026-04-22 19:54 | 54.04449 | 10.80014 | 19347 ft | 386 kts | 33° |
| 2026-04-22 19:54 | 54.06733 | 10.82464 | 19814 ft | 389 kts | 33° |
| 2026-04-22 19:54 | 54.09029 | 10.84933 | 20272 ft | 391 kts | 33° |
| 2026-04-22 19:55 | 54.11335 | 10.87420 | 20734 ft | 394 kts | 33° |
| 2026-04-22 19:55 | 54.13655 | 10.89931 | 21196 ft | 397 kts | 33° |
| 2026-04-22 19:55 | 54.15989 | 10.92461 | 21662 ft | 399 kts | 34° |
| 2026-04-22 19:55 | 54.18341 | 10.95015 | 22111 ft | 402 kts | 34° |
| 2026-04-22 19:56 | 54.20701 | 10.97587 | 22539 ft | 404 kts | 34° |
| 2026-04-22 19:56 | 54.23081 | 11.00183 | 22985 ft | 407 kts | 34° |
| 2026-04-22 19:56 | 54.25474 | 11.02791 | 23257 ft | 409 kts | 34° |
| 2026-04-22 19:56 | 54.27875 | 11.05408 | 23316 ft | 410 kts | 34° |
| 2026-04-22 19:57 | 54.30273 | 11.08027 | 23315 ft | 410 kts | 34° |
| 2026-04-22 19:57 | 54.32681 | 11.10663 | 23316 ft | 410 kts | 34° |
| 2026-04-22 19:57 | 54.35083 | 11.13303 | 23311 ft | 410 kts | 34° |
| 2026-04-22 19:57 | 54.37485 | 11.15943 | 23271 ft | 409 kts | 34° |
| 2026-04-22 19:58 | 54.39847 | 11.18536 | 23003 ft | 397 kts | 34° |
| 2026-04-22 19:58 | 54.42156 | 11.21072 | 22738 ft | 392 kts | 34° |
| 2026-04-22 19:58 | 54.44443 | 11.23586 | 22458 ft | 389 kts | 34° |
| 2026-04-22 19:58 | 54.46716 | 11.26093 | 22192 ft | 387 kts | 34° |
| 2026-04-22 19:59 | 54.48981 | 11.28598 | 21912 ft | 385 kts | 34° |
| 2026-04-22 20:00 | 54.62124 | 11.43207 | 20008 ft | 359 kts | 33° |
| 2026-04-22 20:00 | 54.64208 | 11.45527 | 19600 ft | 355 kts | 33° |
| 2026-04-22 20:01 | 54.66247 | 11.47798 | 19209 ft | 351 kts | 33° |
| 2026-04-22 20:01 | 54.68308 | 11.50096 | 18796 ft | 347 kts | 33° |
| 2026-04-22 20:01 | 54.70329 | 11.52357 | 18340 ft | 344 kts | 33° |
| 2026-04-22 20:01 | 54.72326 | 11.54596 | 17903 ft | 340 kts | 33° |
| 2026-04-22 20:02 | 54.74297 | 11.56811 | 17501 ft | 336 kts | 33° |
| 2026-04-22 20:02 | 54.76249 | 11.59006 | 17094 ft | 333 kts | 33° |
| 2026-04-22 20:02 | 54.78178 | 11.61180 | 16687 ft | 330 kts | 32° |
| 2026-04-22 20:02 | 54.80100 | 11.63346 | 16289 ft | 328 kts | 32° |
| 2026-04-22 20:03 | 54.82011 | 11.65501 | 15882 ft | 326 kts | 32° |
| 2026-04-22 20:03 | 54.83907 | 11.67644 | 15472 ft | 325 kts | 32° |
| 2026-04-22 20:03 | 54.85790 | 11.69776 | 15057 ft | 323 kts | 32° |
| 2026-04-22 20:03 | 54.87668 | 11.71906 | 14663 ft | 321 kts | 32° |
| 2026-04-22 20:04 | 54.89534 | 11.74020 | 14260 ft | 319 kts | 32° |
| 2026-04-22 20:04 | 54.91391 | 11.76119 | 13830 ft | 317 kts | 32° |
| 2026-04-22 20:04 | 54.93236 | 11.78213 | 13413 ft | 315 kts | 32° |
| 2026-04-22 20:04 | 54.95060 | 11.80291 | 13010 ft | 313 kts | 32° |
| 2026-04-22 20:05 | 54.96879 | 11.82362 | 12597 ft | 311 kts | 31° |
| 2026-04-22 20:05 | 54.98680 | 11.84405 | 12182 ft | 308 kts | 31° |
| 2026-04-22 20:05 | 55.00471 | 11.86446 | 11783 ft | 307 kts | 31° |
| 2026-04-22 20:05 | 55.02250 | 11.88479 | 11264 ft | 307 kts | 31° |
| 2026-04-22 20:06 | 55.04063 | 11.90548 | 10565 ft | 315 kts | 31° |
| 2026-04-22 20:06 | 55.05860 | 11.92608 | 10431 ft | 303 kts | 31° |
| 2026-04-22 20:06 | 55.07586 | 11.94593 | 10304 ft | 291 kts | 31° |
| 2026-04-22 20:06 | 55.09239 | 11.96500 | 10194 ft | 279 kts | 31° |
| 2026-04-22 20:07 | 55.10831 | 11.98332 | 10045 ft | 269 kts | 30° |
| 2026-04-22 20:07 | 55.12367 | 12.00097 | 9882 ft | 260 kts | 30° |
| 2026-04-22 20:07 | 55.13877 | 12.01828 | 9618 ft | 259 kts | 30° |
| 2026-04-22 20:07 | 55.15382 | 12.03550 | 9350 ft | 258 kts | 30° |
| 2026-04-22 20:08 | 55.16864 | 12.05254 | 9099 ft | 257 kts | 30° |
| 2026-04-22 20:08 | 55.18372 | 12.06991 | 8830 ft | 256 kts | 30° |
| 2026-04-22 20:08 | 55.19843 | 12.08690 | 8393 ft | 258 kts | 29° |
| 2026-04-22 20:08 | 55.21346 | 12.10427 | 7963 ft | 259 kts | 29° |
| 2026-04-22 20:09 | 55.22846 | 12.12165 | 7583 ft | 258 kts | 29° |
| 2026-04-22 20:09 | 55.24326 | 12.13877 | 7244 ft | 255 kts | 29° |
| 2026-04-22 20:09 | 55.25809 | 12.15598 | 6914 ft | 252 kts | 29° |
| 2026-04-22 20:09 | 55.27276 | 12.17304 | 6457 ft | 255 kts | 29° |
| 2026-04-22 20:10 | 55.28737 | 12.18998 | 6142 ft | 251 kts | 29° |
| 2026-04-22 20:10 | 55.30202 | 12.20696 | 5650 ft | 252 kts | 28° |
| 2026-04-22 20:10 | 55.31644 | 12.22370 | 5259 ft | 247 kts | 28° |
| 2026-04-22 20:10 | 55.33067 | 12.24018 | 4882 ft | 244 kts | 28° |
| 2026-04-22 20:11 | 55.34480 | 12.25657 | 4496 ft | 242 kts | 28° |
| 2026-04-22 20:11 | 55.35881 | 12.27304 | 4120 ft | 242 kts | 29° |
| 2026-04-22 20:11 | 55.37261 | 12.28934 | 3934 ft | 234 kts | 28° |
| 2026-04-22 20:11 | 55.38574 | 12.30478 | 3886 ft | 220 kts | 28° |
| 2026-04-22 20:12 | 55.39812 | 12.31934 | 3797 ft | 209 kts | 27° |
| 2026-04-22 20:12 | 55.41000 | 12.33321 | 3595 ft | 203 kts | 27° |
| 2026-04-22 20:12 | 55.41780 | 12.34228 | 3424 ft | 204 kts | 27° |
| 2026-04-22 20:12 | 55.43362 | 12.36072 | 3103 ft | 202 kts | 29° |
| 2026-04-22 20:13 | 55.44419 | 12.37622 | 3048 ft | 193 kts | 35° |
| 2026-04-22 20:13 | 55.45415 | 12.39149 | 3054 ft | 189 kts | 34° |
| 2026-04-22 20:13 | 55.46404 | 12.40662 | 3046 ft | 188 kts | 34° |
| 2026-04-22 20:13 | 55.47385 | 12.42163 | 3009 ft | 185 kts | 34° |
| 2026-04-22 20:14 | 55.48346 | 12.43635 | 2858 ft | 182 kts | 34° |
| 2026-04-22 20:14 | 55.49298 | 12.45093 | 2637 ft | 181 kts | 34° |
| 2026-04-22 20:14 | 55.49929 | 12.46060 | 2485 ft | 181 kts | 35° |
| 2026-04-22 20:14 | 55.50867 | 12.47531 | 2240 ft | 179 kts | 35° |
| 2026-04-22 20:15 | 55.51788 | 12.48959 | 1989 ft | 169 kts | 34° |
| 2026-04-22 20:15 | 55.52641 | 12.50268 | 1765 ft | 158 kts | 34° |
| 2026-04-22 20:15 | 55.53446 | 12.51491 | 1537 ft | 147 kts | 33° |
| 2026-04-22 20:15 | 55.54205 | 12.52657 | 1312 ft | 143 kts | 32° |
| 2026-04-22 20:16 | 55.54958 | 12.53797 | 1091 ft | 142 kts | 33° |
| 2026-04-22 20:16 | 55.55707 | 12.54940 | 916 ft | 142 kts | 33° |
| 2026-04-22 20:16 | 55.56471 | 12.56077 | 724 ft | 144 kts | 34° |
| 2026-04-22 20:16 | 55.57236 | 12.57236 | 539 ft | 146 kts | 37° |
| 2026-04-22 20:17 | 55.57985 | 12.58440 | 363 ft | 145 kts | 38° |
| 2026-04-22 20:17 | 55.58745 | 12.59618 | 179 ft | 145 kts | 37° |
| 2026-04-22 20:17 | 55.59504 | 12.60781 | 30 ft | 141 kts | 36° |
| 2026-04-22 20:17 | 55.60164 | 12.61799 | 19 ft | 101 kts | 42° |
| 2026-04-22 20:18 | 55.60560 | 12.62424 | 20 ft | 52 kts | 41° |
| 2026-04-22 20:18 | 55.60771 | 12.62743 | 20 ft | 38 kts | 34° |
| 2026-04-22 20:18 | 55.60948 | 12.62859 | 18 ft | 19 kts | 11° |
| 2026-04-22 20:18 | 55.61057 | 12.62897 | 17 ft | 15 kts | 11° |
| 2026-04-22 20:19 | 55.61151 | 12.62962 | 17 ft | 14 kts | 35° |
| 2026-04-22 20:19 | 55.61224 | 12.63074 | 20 ft | 14 kts | 42° |
| 2026-04-22 20:19 | 55.61292 | 12.63181 | 18 ft | 13 kts | 41° |
| 2026-04-22 20:19 | 55.61363 | 12.63290 | 18 ft | 16 kts | 41° |
| 2026-04-22 20:20 | 55.61456 | 12.63433 | 19 ft | 18 kts | 41° |
| 2026-04-22 20:20 | 55.61552 | 12.63580 | 17 ft | 21 kts | 41° |
| 2026-04-22 20:20 | 55.61665 | 12.63756 | 18 ft | 21 kts | 41° |
| 2026-04-22 20:20 | 55.61775 | 12.63926 | 17 ft | 21 kts | 41° |
| 2026-04-22 20:21 | 55.61886 | 12.64084 | 19 ft | 20 kts | 30° |
| 2026-04-22 20:21 | 55.62012 | 12.64192 | 18 ft | 20 kts | 25° |
| 2026-04-22 20:21 | 55.62137 | 12.64294 | 17 ft | 20 kts | 24° |
| 2026-04-22 20:21 | 55.62245 | 12.64360 | 16 ft | 12 kts | 335° |
| 2026-04-22 20:22 | 55.62297 | 12.64235 | 15 ft | 14 kts | 302° |
| 2026-04-22 20:22 | 55.62354 | 12.64076 | 15 ft | 16 kts | 302° |
| 2026-04-22 20:22 | 55.62416 | 12.63907 | 15 ft | 17 kts | 305° |
| 2026-04-22 20:22 | 55.62509 | 12.63780 | 19 ft | 17 kts | 342° |
| 2026-04-22 20:23 | 55.62622 | 12.63790 | 17 ft | 16 kts | 20° |
| 2026-04-22 20:23 | 55.62715 | 12.63896 | 18 ft | 16 kts | 34° |
| 2026-04-22 20:23 | 55.62811 | 12.63953 | 19 ft | 14 kts | 340° |
| 2026-04-22 20:23 | 55.62847 | 12.63801 | 17 ft | 14 kts | 283° |
| 2026-04-22 20:24 | 55.62857 | 12.63634 | 17 ft | 14 kts | 267° |
| 2026-04-22 20:24 | 55.62852 | 12.63495 | 17 ft | 10 kts | 272° |
| 2026-04-22 20:24 | 55.62878 | 12.63493 | 19 ft | 3 kts | 46° |
| 2026-04-22 20:24 | 55.62890 | 12.63511 | 17 ft | 2 kts | 41° |
| 2026-04-22 20:25 | 55.62896 | 12.63520 | 17 ft | 1 kts | 41° |
| 2026-04-22 20:25 | 55.62898 | 12.63524 | 17 ft | 0 kts | 41° |